sensor_id;sensor_type;location;lat;lon;timestamp;temperature;humidity
5429;DHT22;2737;52.386;9.980;2023-02-15T00:01:34;0.30;99.90
5429;DHT22;2737;52.386;9.980;2023-02-15T00:04:04;0.20;99.90
5429;DHT22;2737;52.386;9.980;2023-02-15T00:06:31;0.10;99.90
5429;DHT22;2737;52.386;9.980;2023-02-15T00:08:59;0.10;99.90
5429;DHT22;2737;52.386;9.980;2023-02-15T00:11:26;0.20;99.90
5429;DHT22;2737;52.386;9.980;2023-02-15T00:14:17;0.20;99.90
5429;DHT22;2737;52.386;9.980;2023-02-15T00:16:45;0.30;99.90
5429;DHT22;2737;52.386;9.980;2023-02-15T00:19:16;0.30;99.90
5429;DHT22;2737;52.386;9.980;2023-02-15T00:21:44;0.40;99.90
5429;DHT22;2737;52.386;9.980;2023-02-15T00:24:13;0.30;99.90
5429;DHT22;2737;52.386;9.980;2023-02-15T00:26:40;0.30;99.90
5429;DHT22;2737;52.386;9.980;2023-02-15T00:29:09;0.30;99.90
5429;DHT22;2737;52.386;9.980;2023-02-15T00:31:36;0.30;99.90
5429;DHT22;2737;52.386;9.980;2023-02-15T00:34:05;0.30;99.90
5429;DHT22;2737;52.386;9.980;2023-02-15T00:36:34;0.30;99.90
5429;DHT22;2737;52.386;9.980;2023-02-15T00:39:01;0.30;99.90
5429;DHT22;2737;52.386;9.980;2023-02-15T00:41:28;0.30;99.90
5429;DHT22;2737;52.386;9.980;2023-02-15T00:43:55;0.30;99.90
5429;DHT22;2737;52.386;9.980;2023-02-15T00:46:22;0.20;99.90
5429;DHT22;2737;52.386;9.980;2023-02-15T00:48:49;0.20;99.90
5429;DHT22;2737;52.386;9.980;2023-02-15T00:51:17;0.20;99.90
5429;DHT22;2737;52.386;9.980;2023-02-15T00:53:45;0.20;99.90
5429;DHT22;2737;52.386;9.980;2023-02-15T00:56:12;0.20;99.90
5429;DHT22;2737;52.386;9.980;2023-02-15T00:58:39;0.20;99.90
5429;DHT22;2737;52.386;9.980;2023-02-15T01:01:08;0.20;99.90
5429;DHT22;2737;52.386;9.980;2023-02-15T01:03:36;0.20;99.90
5429;DHT22;2737;52.386;9.980;2023-02-15T01:06:04;0.30;99.90
5429;DHT22;2737;52.386;9.980;2023-02-15T01:08:31;0.30;99.90
5429;DHT22;2737;52.386;9.980;2023-02-15T01:11:03;0.30;99.90
5429;DHT22;2737;52.386;9.980;2023-02-15T01:13:30;0.30;99.90
5429;DHT22;2737;52.386;9.980;2023-02-15T01:15:57;0.20;99.90
5429;DHT22;2737;52.386;9.980;2023-02-15T01:18:24;0.30;99.90
5429;DHT22;2737;52.386;9.980;2023-02-15T01:20:52;0.30;99.90
5429;DHT22;2737;52.386;9.980;2023-02-15T01:23:19;0.30;99.90
5429;DHT22;2737;52.386;9.980;2023-02-15T01:25:46;0.20;99.90
5429;DHT22;2737;52.386;9.980;2023-02-15T01:28:15;0.30;99.90
5429;DHT22;2737;52.386;9.980;2023-02-15T01:30:42;0.20;99.90
5429;DHT22;2737;52.386;9.980;2023-02-15T01:33:10;0.20;99.90
5429;DHT22;2737;52.386;9.980;2023-02-15T01:35:43;0.30;99.90
5429;DHT22;2737;52.386;9.980;2023-02-15T01:38:11;0.30;99.90
5429;DHT22;2737;52.386;9.980;2023-02-15T01:40:38;0.20;99.90
5429;DHT22;2737;52.386;9.980;2023-02-15T01:43:09;0.20;99.90
5429;DHT22;2737;52.386;9.980;2023-02-15T01:45:38;0.20;99.90
5429;DHT22;2737;52.386;9.980;2023-02-15T01:48:14;0.00;99.90
5429;DHT22;2737;52.386;9.980;2023-02-15T01:50:48;0.00;99.90
5429;DHT22;2737;52.386;9.980;2023-02-15T01:53:21;0.10;99.90
5429;DHT22;2737;52.386;9.980;2023-02-15T01:55:53;0.20;99.90
5429;DHT22;2737;52.386;9.980;2023-02-15T01:58:22;0.10;99.90
5429;DHT22;2737;52.386;9.980;2023-02-15T02:00:52;0.10;99.90
5429;DHT22;2737;52.386;9.980;2023-02-15T02:03:27;0.20;99.90
5429;DHT22;2737;52.386;9.980;2023-02-15T02:05:57;0.20;99.90
5429;DHT22;2737;52.386;9.980;2023-02-15T02:08:24;0.20;99.90
5429;DHT22;2737;52.386;9.980;2023-02-15T02:10:52;0.30;99.90
5429;DHT22;2737;52.386;9.980;2023-02-15T02:13:19;0.30;99.90
5429;DHT22;2737;52.386;9.980;2023-02-15T02:15:50;0.30;99.90
5429;DHT22;2737;52.386;9.980;2023-02-15T02:18:35;0.30;99.90
5429;DHT22;2737;52.386;9.980;2023-02-15T02:24:34;0.40;99.90
5429;DHT22;2737;52.386;9.980;2023-02-15T02:27:36;0.30;99.90
5429;DHT22;2737;52.386;9.980;2023-02-15T02:30:40;0.30;99.90
5429;DHT22;2737;52.386;9.980;2023-02-15T02:33:30;0.40;99.90
5429;DHT22;2737;52.386;9.980;2023-02-15T02:36:06;0.30;99.90
5429;DHT22;2737;52.386;9.980;2023-02-15T02:38:46;0.30;99.90
5429;DHT22;2737;52.386;9.980;2023-02-15T02:41:20;0.30;99.90
5429;DHT22;2737;52.386;9.980;2023-02-15T02:43:54;0.30;99.90
5429;DHT22;2737;52.386;9.980;2023-02-15T02:46:31;0.30;99.90
5429;DHT22;2737;52.386;9.980;2023-02-15T02:49:01;0.20;99.90
5429;DHT22;2737;52.386;9.980;2023-02-15T02:51:28;0.20;99.90
5429;DHT22;2737;52.386;9.980;2023-02-15T02:53:56;0.10;99.90
5429;DHT22;2737;52.386;9.980;2023-02-15T02:56:29;0.10;99.90
5429;DHT22;2737;52.386;9.980;2023-02-15T02:59:00;0.10;99.90
5429;DHT22;2737;52.386;9.980;2023-02-15T03:01:31;0.00;99.90
5429;DHT22;2737;52.386;9.980;2023-02-15T03:04:03;0.00;99.90
5429;DHT22;2737;52.386;9.980;2023-02-15T03:06:37;0.00;99.90
5429;DHT22;2737;52.386;9.980;2023-02-15T03:09:09;0.00;99.90
5429;DHT22;2737;52.386;9.980;2023-02-15T03:11:43;0.00;99.90
5429;DHT22;2737;52.386;9.980;2023-02-15T03:14:12;0.00;99.90
5429;DHT22;2737;52.386;9.980;2023-02-15T03:16:40;0.00;99.90
5429;DHT22;2737;52.386;9.980;2023-02-15T03:19:13;-0.10;99.90
5429;DHT22;2737;52.386;9.980;2023-02-15T03:21:44;-0.10;99.90
5429;DHT22;2737;52.386;9.980;2023-02-15T03:24:24;-0.10;99.90
5429;DHT22;2737;52.386;9.980;2023-02-15T03:26:54;-0.10;99.90
5429;DHT22;2737;52.386;9.980;2023-02-15T03:29:26;-0.10;99.90
5429;DHT22;2737;52.386;9.980;2023-02-15T03:31:56;-0.10;99.90
5429;DHT22;2737;52.386;9.980;2023-02-15T03:34:26;-0.20;99.90
5429;DHT22;2737;52.386;9.980;2023-02-15T03:36:58;-0.10;99.90
5429;DHT22;2737;52.386;9.980;2023-02-15T03:39:30;-0.20;99.90
5429;DHT22;2737;52.386;9.980;2023-02-15T03:42:04;-0.20;99.90
5429;DHT22;2737;52.386;9.980;2023-02-15T03:44:41;-0.30;99.90
5429;DHT22;2737;52.386;9.980;2023-02-15T03:47:13;-0.20;99.90
5429;DHT22;2737;52.386;9.980;2023-02-15T03:49:48;-0.20;99.90
5429;DHT22;2737;52.386;9.980;2023-02-15T03:52:18;-0.30;99.90
5429;DHT22;2737;52.386;9.980;2023-02-15T03:54:46;-0.30;99.90
5429;DHT22;2737;52.386;9.980;2023-02-15T03:57:18;-0.30;99.90
5429;DHT22;2737;52.386;9.980;2023-02-15T04:00:05;-0.20;99.90
5429;DHT22;2737;52.386;9.980;2023-02-15T04:03:20;-0.40;99.90
5429;DHT22;2737;52.386;9.980;2023-02-15T04:05:50;-0.40;99.90
5429;DHT22;2737;52.386;9.980;2023-02-15T04:08:18;-0.40;99.90
5429;DHT22;2737;52.386;9.980;2023-02-15T04:10:45;-0.40;99.90
5429;DHT22;2737;52.386;9.980;2023-02-15T04:13:22;-0.40;99.90
5429;DHT22;2737;52.386;9.980;2023-02-15T04:15:50;-0.50;99.90
5429;DHT22;2737;52.386;9.980;2023-02-15T04:18:32;-0.60;99.90
5429;DHT22;2737;52.386;9.980;2023-02-15T04:21:19;-0.60;99.90
5429;DHT22;2737;52.386;9.980;2023-02-15T04:24:04;-0.50;99.90
5429;DHT22;2737;52.386;9.980;2023-02-15T04:26:49;-0.50;99.90
5429;DHT22;2737;52.386;9.980;2023-02-15T04:29:18;-0.50;99.90
5429;DHT22;2737;52.386;9.980;2023-02-15T04:31:45;-0.50;99.90
5429;DHT22;2737;52.386;9.980;2023-02-15T04:34:13;-0.50;99.90
5429;DHT22;2737;52.386;9.980;2023-02-15T04:36:42;-0.40;99.90
5429;DHT22;2737;52.386;9.980;2023-02-15T04:39:09;-0.40;99.90
5429;DHT22;2737;52.386;9.980;2023-02-15T04:41:39;-0.50;99.90
5429;DHT22;2737;52.386;9.980;2023-02-15T04:44:06;-0.50;99.90
5429;DHT22;2737;52.386;9.980;2023-02-15T04:46:33;-0.50;99.90
5429;DHT22;2737;52.386;9.980;2023-02-15T04:49:00;-0.50;99.90
5429;DHT22;2737;52.386;9.980;2023-02-15T04:51:28;-0.50;99.90
5429;DHT22;2737;52.386;9.980;2023-02-15T04:53:57;-0.50;99.90
5429;DHT22;2737;52.386;9.980;2023-02-15T04:56:24;-0.50;99.90
5429;DHT22;2737;52.386;9.980;2023-02-15T04:58:51;-0.60;99.90
5429;DHT22;2737;52.386;9.980;2023-02-15T05:01:19;-0.60;99.90
5429;DHT22;2737;52.386;9.980;2023-02-15T05:03:46;-0.60;99.90
5429;DHT22;2737;52.386;9.980;2023-02-15T05:06:13;-0.60;99.90
5429;DHT22;2737;52.386;9.980;2023-02-15T05:08:40;-0.60;99.90
5429;DHT22;2737;52.386;9.980;2023-02-15T05:11:08;-0.60;99.90
5429;DHT22;2737;52.386;9.980;2023-02-15T05:13:36;-0.60;99.90
5429;DHT22;2737;52.386;9.980;2023-02-15T05:16:03;-0.70;99.90
5429;DHT22;2737;52.386;9.980;2023-02-15T05:18:30;-0.70;99.90
5429;DHT22;2737;52.386;9.980;2023-02-15T05:20:57;-0.60;99.90
5429;DHT22;2737;52.386;9.980;2023-02-15T05:23:24;-0.70;99.90
5429;DHT22;2737;52.386;9.980;2023-02-15T05:25:51;-0.70;99.90
5429;DHT22;2737;52.386;9.980;2023-02-15T05:28:38;-0.70;99.90
5429;DHT22;2737;52.386;9.980;2023-02-15T05:31:07;-0.70;99.90
5429;DHT22;2737;52.386;9.980;2023-02-15T05:33:34;-0.70;99.90
5429;DHT22;2737;52.386;9.980;2023-02-15T05:36:02;-0.70;99.90
5429;DHT22;2737;52.386;9.980;2023-02-15T05:38:30;-0.80;99.90
5429;DHT22;2737;52.386;9.980;2023-02-15T05:40:57;-0.70;99.90
5429;DHT22;2737;52.386;9.980;2023-02-15T05:43:24;-0.80;99.90
5429;DHT22;2737;52.386;9.980;2023-02-15T05:45:54;-0.80;99.90
5429;DHT22;2737;52.386;9.980;2023-02-15T05:48:23;-0.80;99.90
5429;DHT22;2737;52.386;9.980;2023-02-15T05:50:57;-0.80;99.90
5429;DHT22;2737;52.386;9.980;2023-02-15T05:53:25;-0.80;99.90
5429;DHT22;2737;52.386;9.980;2023-02-15T05:55:52;-0.80;99.90
5429;DHT22;2737;52.386;9.980;2023-02-15T05:58:24;-0.80;99.90
5429;DHT22;2737;52.386;9.980;2023-02-15T06:00:53;-0.70;99.90
5429;DHT22;2737;52.386;9.980;2023-02-15T06:03:20;-0.70;99.90
5429;DHT22;2737;52.386;9.980;2023-02-15T06:05:47;-0.70;99.90
5429;DHT22;2737;52.386;9.980;2023-02-15T06:08:15;-0.60;99.90
5429;DHT22;2737;52.386;9.980;2023-02-15T06:10:42;-0.60;99.90
5429;DHT22;2737;52.386;9.980;2023-02-15T06:13:09;-0.50;99.90
5429;DHT22;2737;52.386;9.980;2023-02-15T06:15:36;-0.30;99.90
5429;DHT22;2737;52.386;9.980;2023-02-15T06:18:04;-0.20;99.90
5429;DHT22;2737;52.386;9.980;2023-02-15T06:20:32;-0.10;99.90
5429;DHT22;2737;52.386;9.980;2023-02-15T06:22:59;-0.10;99.90
5429;DHT22;2737;52.386;9.980;2023-02-15T06:25:26;-0.10;99.90
5429;DHT22;2737;52.386;9.980;2023-02-15T06:27:53;-0.10;99.90
5429;DHT22;2737;52.386;9.980;2023-02-15T06:30:20;-0.10;99.90
5429;DHT22;2737;52.386;9.980;2023-02-15T06:32:48;0.00;99.90
5429;DHT22;2737;52.386;9.980;2023-02-15T06:35:16;0.00;99.90
5429;DHT22;2737;52.386;9.980;2023-02-15T06:37:45;0.00;99.90
5429;DHT22;2737;52.386;9.980;2023-02-15T06:40:13;0.00;99.90
5429;DHT22;2737;52.386;9.980;2023-02-15T06:42:41;0.10;99.90
5429;DHT22;2737;52.386;9.980;2023-02-15T06:45:09;0.10;99.90
5429;DHT22;2737;52.386;9.980;2023-02-15T06:47:36;0.10;99.90
5429;DHT22;2737;52.386;9.980;2023-02-15T06:50:04;0.10;99.90
5429;DHT22;2737;52.386;9.980;2023-02-15T06:52:33;0.10;99.90
5429;DHT22;2737;52.386;9.980;2023-02-15T06:55:00;0.20;99.90
5429;DHT22;2737;52.386;9.980;2023-02-15T06:57:27;0.20;99.90
5429;DHT22;2737;52.386;9.980;2023-02-15T06:59:55;0.20;99.90
5429;DHT22;2737;52.386;9.980;2023-02-15T07:02:23;0.30;99.90
5429;DHT22;2737;52.386;9.980;2023-02-15T07:04:51;0.30;99.90
5429;DHT22;2737;52.386;9.980;2023-02-15T07:07:18;0.30;99.90
5429;DHT22;2737;52.386;9.980;2023-02-15T07:09:46;0.30;99.90
5429;DHT22;2737;52.386;9.980;2023-02-15T07:12:13;0.40;99.90
5429;DHT22;2737;52.386;9.980;2023-02-15T07:14:58;0.40;99.90
5429;DHT22;2737;52.386;9.980;2023-02-15T07:17:25;0.50;99.90
5429;DHT22;2737;52.386;9.980;2023-02-15T07:19:54;0.50;99.90
5429;DHT22;2737;52.386;9.980;2023-02-15T07:22:21;0.50;99.90
5429;DHT22;2737;52.386;9.980;2023-02-15T07:24:49;0.60;99.90
5429;DHT22;2737;52.386;9.980;2023-02-15T07:27:20;0.60;99.90
5429;DHT22;2737;52.386;9.980;2023-02-15T07:29:47;0.70;99.90
5429;DHT22;2737;52.386;9.980;2023-02-15T07:32:15;0.70;99.90
5429;DHT22;2737;52.386;9.980;2023-02-15T07:34:42;0.80;99.90
5429;DHT22;2737;52.386;9.980;2023-02-15T07:37:09;0.80;99.90
5429;DHT22;2737;52.386;9.980;2023-02-15T07:39:36;0.90;99.90
5429;DHT22;2737;52.386;9.980;2023-02-15T07:42:04;0.90;99.90
5429;DHT22;2737;52.386;9.980;2023-02-15T07:44:31;1.00;99.90
5429;DHT22;2737;52.386;9.980;2023-02-15T07:46:58;1.00;99.90
5429;DHT22;2737;52.386;9.980;2023-02-15T07:49:25;1.10;99.90
5429;DHT22;2737;52.386;9.980;2023-02-15T07:51:52;1.20;99.90
5429;DHT22;2737;52.386;9.980;2023-02-15T07:54:20;1.30;99.90
5429;DHT22;2737;52.386;9.980;2023-02-15T07:56:47;1.30;99.90
5429;DHT22;2737;52.386;9.980;2023-02-15T07:59:15;1.30;99.90
5429;DHT22;2737;52.386;9.980;2023-02-15T08:01:42;1.40;99.90
5429;DHT22;2737;52.386;9.980;2023-02-15T08:04:09;1.40;99.90
5429;DHT22;2737;52.386;9.980;2023-02-15T08:06:44;1.50;99.90
5429;DHT22;2737;52.386;9.980;2023-02-15T08:09:12;1.50;99.90
5429;DHT22;2737;52.386;9.980;2023-02-15T08:11:42;1.60;99.90
5429;DHT22;2737;52.386;9.980;2023-02-15T08:14:12;1.60;99.90
5429;DHT22;2737;52.386;9.980;2023-02-15T08:16:43;1.70;99.90
5429;DHT22;2737;52.386;9.980;2023-02-15T08:19:12;1.70;99.90
5429;DHT22;2737;52.386;9.980;2023-02-15T08:21:40;1.80;99.90
5429;DHT22;2737;52.386;9.980;2023-02-15T08:24:10;2.00;99.90
5429;DHT22;2737;52.386;9.980;2023-02-15T08:26:39;2.10;99.90
5429;DHT22;2737;52.386;9.980;2023-02-15T08:29:07;2.10;99.90
5429;DHT22;2737;52.386;9.980;2023-02-15T08:31:35;2.20;99.90
5429;DHT22;2737;52.386;9.980;2023-02-15T08:34:04;2.30;99.90
5429;DHT22;2737;52.386;9.980;2023-02-15T08:36:32;2.30;99.90
5429;DHT22;2737;52.386;9.980;2023-02-15T08:39:01;2.30;99.90
5429;DHT22;2737;52.386;9.980;2023-02-15T08:41:29;2.40;99.90
5429;DHT22;2737;52.386;9.980;2023-02-15T08:43:58;2.40;99.90
5429;DHT22;2737;52.386;9.980;2023-02-15T08:46:28;2.50;99.90
5429;DHT22;2737;52.386;9.980;2023-02-15T08:48:56;2.50;99.90
5429;DHT22;2737;52.386;9.980;2023-02-15T08:51:25;2.50;99.90
5429;DHT22;2737;52.386;9.980;2023-02-15T08:53:54;2.60;99.90
5429;DHT22;2737;52.386;9.980;2023-02-15T08:56:23;2.60;99.90
5429;DHT22;2737;52.386;9.980;2023-02-15T08:58:51;2.70;99.90
5429;DHT22;2737;52.386;9.980;2023-02-15T09:01:21;2.70;99.90
5429;DHT22;2737;52.386;9.980;2023-02-15T09:03:50;2.70;99.90
5429;DHT22;2737;52.386;9.980;2023-02-15T09:06:19;2.80;99.90
5429;DHT22;2737;52.386;9.980;2023-02-15T09:08:47;2.80;99.90
5429;DHT22;2737;52.386;9.980;2023-02-15T09:11:17;2.90;99.90
5429;DHT22;2737;52.386;9.980;2023-02-15T09:13:49;3.00;99.90
5429;DHT22;2737;52.386;9.980;2023-02-15T09:16:18;3.10;99.90
5429;DHT22;2737;52.386;9.980;2023-02-15T09:18:45;3.20;99.90
5429;DHT22;2737;52.386;9.980;2023-02-15T09:21:14;3.20;99.90
5429;DHT22;2737;52.386;9.980;2023-02-15T09:23:41;3.30;99.90
5429;DHT22;2737;52.386;9.980;2023-02-15T09:26:11;3.40;99.90
5429;DHT22;2737;52.386;9.980;2023-02-15T09:28:39;3.40;99.90
5429;DHT22;2737;52.386;9.980;2023-02-15T09:31:11;3.50;99.90
5429;DHT22;2737;52.386;9.980;2023-02-15T09:33:39;3.50;99.90
5429;DHT22;2737;52.386;9.980;2023-02-15T09:36:18;3.60;99.90
5429;DHT22;2737;52.386;9.980;2023-02-15T09:38:45;3.60;99.90
5429;DHT22;2737;52.386;9.980;2023-02-15T09:41:28;3.70;99.90
5429;DHT22;2737;52.386;9.980;2023-02-15T09:44:07;3.70;99.90
5429;DHT22;2737;52.386;9.980;2023-02-15T09:46:55;3.70;99.90
5429;DHT22;2737;52.386;9.980;2023-02-15T09:49:32;3.80;99.90
5429;DHT22;2737;52.386;9.980;2023-02-15T09:55:19;3.90;99.90
5429;DHT22;2737;52.386;9.980;2023-02-15T09:57:59;4.10;99.90
5429;DHT22;2737;52.386;9.980;2023-02-15T10:00:33;4.10;99.90
5429;DHT22;2737;52.386;9.980;2023-02-15T10:03:22;4.20;99.90
5429;DHT22;2737;52.386;9.980;2023-02-15T10:06:04;4.20;99.90
5429;DHT22;2737;52.386;9.980;2023-02-15T10:08:51;4.20;99.90
5429;DHT22;2737;52.386;9.980;2023-02-15T10:11:25;4.30;99.90
5429;DHT22;2737;52.386;9.980;2023-02-15T10:14:33;4.40;99.90
5429;DHT22;2737;52.386;9.980;2023-02-15T10:17:14;4.50;99.90
5429;DHT22;2737;52.386;9.980;2023-02-15T10:19:55;4.70;99.90
5429;DHT22;2737;52.386;9.980;2023-02-15T10:22:36;4.70;99.90
5429;DHT22;2737;52.386;9.980;2023-02-15T10:25:16;4.70;99.90
5429;DHT22;2737;52.386;9.980;2023-02-15T10:27:47;4.80;99.90
5429;DHT22;2737;52.386;9.980;2023-02-15T10:30:20;4.80;99.90
5429;DHT22;2737;52.386;9.980;2023-02-15T10:32:59;4.70;99.90
5429;DHT22;2737;52.386;9.980;2023-02-15T10:35:34;4.80;99.90
5429;DHT22;2737;52.386;9.980;2023-02-15T10:38:11;4.90;99.90
5429;DHT22;2737;52.386;9.980;2023-02-15T10:40:47;4.90;99.90
5429;DHT22;2737;52.386;9.980;2023-02-15T10:43:39;5.00;99.90
5429;DHT22;2737;52.386;9.980;2023-02-15T10:46:16;5.10;99.90
5429;DHT22;2737;52.386;9.980;2023-02-15T10:49:14;5.10;99.90
5429;DHT22;2737;52.386;9.980;2023-02-15T10:51:55;5.20;99.90
5429;DHT22;2737;52.386;9.980;2023-02-15T10:54:31;5.20;99.90
5429;DHT22;2737;52.386;9.980;2023-02-15T10:57:06;5.30;99.90
5429;DHT22;2737;52.386;9.980;2023-02-15T10:59:47;5.40;99.90
5429;DHT22;2737;52.386;9.980;2023-02-15T11:02:24;5.40;99.90
5429;DHT22;2737;52.386;9.980;2023-02-15T11:05:07;5.40;99.90
5429;DHT22;2737;52.386;9.980;2023-02-15T11:07:39;5.50;99.90
5429;DHT22;2737;52.386;9.980;2023-02-15T11:10:18;5.60;99.90
5429;DHT22;2737;52.386;9.980;2023-02-15T11:12:49;5.60;99.90
5429;DHT22;2737;52.386;9.980;2023-02-15T11:15:21;5.70;99.90
5429;DHT22;2737;52.386;9.980;2023-02-15T11:17:57;5.70;99.90
5429;DHT22;2737;52.386;9.980;2023-02-15T11:20:29;5.70;99.90
5429;DHT22;2737;52.386;9.980;2023-02-15T11:22:57;5.70;99.90
5429;DHT22;2737;52.386;9.980;2023-02-15T11:25:28;5.70;99.90
5429;DHT22;2737;52.386;9.980;2023-02-15T11:27:56;5.70;99.90
5429;DHT22;2737;52.386;9.980;2023-02-15T11:30:25;5.70;99.90
5429;DHT22;2737;52.386;9.980;2023-02-15T11:32:57;5.80;99.90
5429;DHT22;2737;52.386;9.980;2023-02-15T11:35:28;5.90;99.90
5429;DHT22;2737;52.386;9.980;2023-02-15T11:38:03;5.80;99.90
5429;DHT22;2737;52.386;9.980;2023-02-15T11:40:35;6.00;99.90
5429;DHT22;2737;52.386;9.980;2023-02-15T11:43:05;6.00;99.90
5429;DHT22;2737;52.386;9.980;2023-02-15T11:45:34;6.00;99.90
5429;DHT22;2737;52.386;9.980;2023-02-15T11:48:10;6.10;99.90
5429;DHT22;2737;52.386;9.980;2023-02-15T11:50:38;6.20;99.90
5429;DHT22;2737;52.386;9.980;2023-02-15T11:53:11;6.20;99.90
5429;DHT22;2737;52.386;9.980;2023-02-15T11:55:39;6.20;99.90
5429;DHT22;2737;52.386;9.980;2023-02-15T11:58:16;6.30;99.90
5429;DHT22;2737;52.386;9.980;2023-02-15T12:00:50;6.30;99.90
5429;DHT22;2737;52.386;9.980;2023-02-15T12:03:24;6.40;99.90
5429;DHT22;2737;52.386;9.980;2023-02-15T12:06:01;6.40;99.90
5429;DHT22;2737;52.386;9.980;2023-02-15T12:08:36;6.50;99.90
5429;DHT22;2737;52.386;9.980;2023-02-15T12:11:07;6.50;99.90
5429;DHT22;2737;52.386;9.980;2023-02-15T12:13:54;6.50;99.90
5429;DHT22;2737;52.386;9.980;2023-02-15T12:16:22;6.50;99.90
5429;DHT22;2737;52.386;9.980;2023-02-15T12:18:52;6.50;99.90
5429;DHT22;2737;52.386;9.980;2023-02-15T12:21:27;6.50;99.90
5429;DHT22;2737;52.386;9.980;2023-02-15T12:23:57;6.50;99.90
5429;DHT22;2737;52.386;9.980;2023-02-15T12:26:26;6.50;99.90
5429;DHT22;2737;52.386;9.980;2023-02-15T12:28:55;6.50;99.90
5429;DHT22;2737;52.386;9.980;2023-02-15T12:31:27;6.60;99.90
5429;DHT22;2737;52.386;9.980;2023-02-15T12:34:01;6.60;99.90
5429;DHT22;2737;52.386;9.980;2023-02-15T12:36:31;6.50;99.90
5429;DHT22;2737;52.386;9.980;2023-02-15T12:39:22;6.50;99.90
5429;DHT22;2737;52.386;9.980;2023-02-15T12:42:01;6.60;99.90
5429;DHT22;2737;52.386;9.980;2023-02-15T12:44:30;6.60;99.90
5429;DHT22;2737;52.386;9.980;2023-02-15T12:47:00;6.70;99.90
5429;DHT22;2737;52.386;9.980;2023-02-15T12:49:29;6.70;99.90
5429;DHT22;2737;52.386;9.980;2023-02-15T12:51:58;6.80;99.90
5429;DHT22;2737;52.386;9.980;2023-02-15T12:54:32;6.80;99.90
5429;DHT22;2737;52.386;9.980;2023-02-15T12:57:13;6.80;99.90
5429;DHT22;2737;52.386;9.980;2023-02-15T12:59:48;7.00;99.90
5429;DHT22;2737;52.386;9.980;2023-02-15T13:02:21;6.90;99.90
5429;DHT22;2737;52.386;9.980;2023-02-15T13:04:50;6.90;99.90
5429;DHT22;2737;52.386;9.980;2023-02-15T13:07:18;7.00;99.90
5429;DHT22;2737;52.386;9.980;2023-02-15T13:09:46;7.00;99.90
5429;DHT22;2737;52.386;9.980;2023-02-15T13:12:20;7.00;99.90
5429;DHT22;2737;52.386;9.980;2023-02-15T13:14:50;7.00;99.90
5429;DHT22;2737;52.386;9.980;2023-02-15T13:17:21;7.10;99.90
5429;DHT22;2737;52.386;9.980;2023-02-15T13:19:54;7.10;99.90
5429;DHT22;2737;52.386;9.980;2023-02-15T13:22:25;7.10;99.90
5429;DHT22;2737;52.386;9.980;2023-02-15T13:24:56;7.10;99.90
5429;DHT22;2737;52.386;9.980;2023-02-15T13:27:29;7.10;99.90
5429;DHT22;2737;52.386;9.980;2023-02-15T13:30:03;7.20;99.90
5429;DHT22;2737;52.386;9.980;2023-02-15T13:32:33;7.30;99.90
5429;DHT22;2737;52.386;9.980;2023-02-15T13:35:04;7.30;99.90
5429;DHT22;2737;52.386;9.980;2023-02-15T13:37:53;7.40;99.90
5429;DHT22;2737;52.386;9.980;2023-02-15T13:40:31;7.40;99.90
5429;DHT22;2737;52.386;9.980;2023-02-15T13:43:03;7.40;99.90
5429;DHT22;2737;52.386;9.980;2023-02-15T13:45:40;7.40;99.90
5429;DHT22;2737;52.386;9.980;2023-02-15T13:48:16;7.30;99.90
5429;DHT22;2737;52.386;9.980;2023-02-15T13:50:57;7.40;99.90
5429;DHT22;2737;52.386;9.980;2023-02-15T13:53:40;7.30;99.90
5429;DHT22;2737;52.386;9.980;2023-02-15T13:56:16;7.40;99.90
5429;DHT22;2737;52.386;9.980;2023-02-15T13:59:00;7.30;99.90
5429;DHT22;2737;52.386;9.980;2023-02-15T14:01:36;7.30;99.90
5429;DHT22;2737;52.386;9.980;2023-02-15T14:07:49;7.40;99.90
5429;DHT22;2737;52.386;9.980;2023-02-15T14:10:44;7.50;99.90
5429;DHT22;2737;52.386;9.980;2023-02-15T14:13:39;7.50;99.90
5429;DHT22;2737;52.386;9.980;2023-02-15T14:16:16;7.40;99.90
5429;DHT22;2737;52.386;9.980;2023-02-15T14:18:48;7.40;99.90
5429;DHT22;2737;52.386;9.980;2023-02-15T14:21:24;7.50;99.90
5429;DHT22;2737;52.386;9.980;2023-02-15T14:24:07;7.50;99.90
5429;DHT22;2737;52.386;9.980;2023-02-15T14:26:40;7.50;99.90
5429;DHT22;2737;52.386;9.980;2023-02-15T14:29:19;7.50;99.90
5429;DHT22;2737;52.386;9.980;2023-02-15T14:31:50;7.50;99.90
5429;DHT22;2737;52.386;9.980;2023-02-15T14:34:23;7.50;99.90
5429;DHT22;2737;52.386;9.980;2023-02-15T14:36:52;7.50;99.90
5429;DHT22;2737;52.386;9.980;2023-02-15T14:39:29;7.50;99.90
5429;DHT22;2737;52.386;9.980;2023-02-15T14:42:23;7.50;99.90
5429;DHT22;2737;52.386;9.980;2023-02-15T14:44:59;7.50;99.90
5429;DHT22;2737;52.386;9.980;2023-02-15T14:47:34;7.40;99.90
5429;DHT22;2737;52.386;9.980;2023-02-15T14:53:34;7.30;99.90
5429;DHT22;2737;52.386;9.980;2023-02-15T14:56:24;7.30;99.90
5429;DHT22;2737;52.386;9.980;2023-02-15T14:59:14;7.30;99.90
5429;DHT22;2737;52.386;9.980;2023-02-15T15:01:42;7.30;99.90
5429;DHT22;2737;52.386;9.980;2023-02-15T15:04:25;7.30;99.90
5429;DHT22;2737;52.386;9.980;2023-02-15T15:07:01;7.30;99.90
5429;DHT22;2737;52.386;9.980;2023-02-15T15:09:30;7.30;99.90
5429;DHT22;2737;52.386;9.980;2023-02-15T15:14:56;7.30;99.90
5429;DHT22;2737;52.386;9.980;2023-02-15T15:17:57;7.30;99.90
5429;DHT22;2737;52.386;9.980;2023-02-15T15:20:45;7.30;99.90
5429;DHT22;2737;52.386;9.980;2023-02-15T15:23:41;7.20;99.90
5429;DHT22;2737;52.386;9.980;2023-02-15T15:26:24;7.20;99.90
5429;DHT22;2737;52.386;9.980;2023-02-15T15:29:01;7.30;99.90
5429;DHT22;2737;52.386;9.980;2023-02-15T15:31:45;7.20;99.90
5429;DHT22;2737;52.386;9.980;2023-02-15T15:34:44;7.20;99.90
5429;DHT22;2737;52.386;9.980;2023-02-15T15:40:42;7.10;99.90
5429;DHT22;2737;52.386;9.980;2023-02-15T15:46:42;7.10;99.90
5429;DHT22;2737;52.386;9.980;2023-02-15T15:49:16;7.10;99.90
5429;DHT22;2737;52.386;9.980;2023-02-15T15:51:45;7.10;99.90
5429;DHT22;2737;52.386;9.980;2023-02-15T15:54:16;7.10;99.90
5429;DHT22;2737;52.386;9.980;2023-02-15T15:56:48;7.10;99.90
5429;DHT22;2737;52.386;9.980;2023-02-15T15:59:19;7.00;99.90
5429;DHT22;2737;52.386;9.980;2023-02-15T16:01:48;7.00;99.90
5429;DHT22;2737;52.386;9.980;2023-02-15T16:04:24;6.90;99.90
5429;DHT22;2737;52.386;9.980;2023-02-15T16:06:52;6.90;99.90
5429;DHT22;2737;52.386;9.980;2023-02-15T16:09:21;6.90;99.90
5429;DHT22;2737;52.386;9.980;2023-02-15T16:11:51;6.80;99.90
5429;DHT22;2737;52.386;9.980;2023-02-15T16:14:25;6.80;99.90
5429;DHT22;2737;52.386;9.980;2023-02-15T16:16:57;6.70;99.90
5429;DHT22;2737;52.386;9.980;2023-02-15T16:19:28;6.60;99.90
5429;DHT22;2737;52.386;9.980;2023-02-15T16:21:58;6.60;99.90
5429;DHT22;2737;52.386;9.980;2023-02-15T16:24:37;6.50;99.90
5429;DHT22;2737;52.386;9.980;2023-02-15T16:29:57;6.40;99.90
5429;DHT22;2737;52.386;9.980;2023-02-15T16:32:27;6.30;99.90
5429;DHT22;2737;52.386;9.980;2023-02-15T16:34:55;6.20;99.90
5429;DHT22;2737;52.386;9.980;2023-02-15T16:37:24;6.20;99.90
5429;DHT22;2737;52.386;9.980;2023-02-15T16:39:53;6.10;99.90
5429;DHT22;2737;52.386;9.980;2023-02-15T16:42:20;6.00;99.90
5429;DHT22;2737;52.386;9.980;2023-02-15T16:44:51;6.00;99.90
5429;DHT22;2737;52.386;9.980;2023-02-15T16:47:21;5.90;99.90
5429;DHT22;2737;52.386;9.980;2023-02-15T16:49:52;5.90;99.90
5429;DHT22;2737;52.386;9.980;2023-02-15T16:52:22;5.80;99.90
5429;DHT22;2737;52.386;9.980;2023-02-15T16:54:56;5.90;99.90
5429;DHT22;2737;52.386;9.980;2023-02-15T16:57:27;5.90;99.90
5429;DHT22;2737;52.386;9.980;2023-02-15T16:59:58;5.80;99.90
5429;DHT22;2737;52.386;9.980;2023-02-15T17:02:30;5.80;99.90
5429;DHT22;2737;52.386;9.980;2023-02-15T17:05:16;5.70;99.90
5429;DHT22;2737;52.386;9.980;2023-02-15T17:08:12;5.60;99.90
5429;DHT22;2737;52.386;9.980;2023-02-15T17:10:41;5.60;99.90
5429;DHT22;2737;52.386;9.980;2023-02-15T17:13:10;5.60;99.90
5429;DHT22;2737;52.386;9.980;2023-02-15T17:15:40;5.60;99.90